Time;durP1;ratioP1;P1;durP2;ratioP2;P2;SDS_P1;SDS_P2;PMS_P1;PMS_P2;Temp;Humidity;BMP_temperature;BMP_pressure;BME280_temperature;BME280_humidity;BME280_pressure;Samples;Min_cycle;Max_cycle;Signal;HPM_P1;HPM_P2
2023/12/05 00:01:24;;;;;;;;;;;;;;;-0.01;62.74;99582.25;5055439;28;20297;-72
2023/12/05 00:03:54;;;;;;;;;;;;;;;-0.08;62.94;99593.69;5057382;28;19921;-73
2023/12/05 00:06:24;;;;;;;;;;;;;;;-0.07;63.26;99595.38;5056893;28;20358;-74
2023/12/05 00:08:52;;;;;;;;;;;;;;;-0.07;63.25;99585.38;5056370;28;19921;-73
2023/12/05 00:11:21;;;;;;;;;;;;;;;-0.08;63.10;99582.81;5056326;28;20105;-74
2023/12/05 00:13:50;;;;;;;;;;;;;;;-0.10;63.67;99590.25;5056271;28;19928;-73
2023/12/05 00:16:18;;;;;;;;;;;;;;;-0.13;63.62;99582.63;5055848;28;20318;-73
2023/12/05 00:18:49;;;;;;;;;;;;;;;-0.14;63.33;99568.38;5055782;28;19920;-74
2023/12/05 00:21:20;;;;;;;;;;;;;;;-0.16;64.07;99594.19;5054805;28;20330;-74
2023/12/05 00:23:49;;;;;;;;;;;;;;;-0.19;64.10;99579.00;5055442;28;20007;-74
2023/12/05 00:26:17;;;;;;;;;;;;;;;-0.22;64.27;99564.72;5055983;28;20274;-75
2023/12/05 00:28:46;;;;;;;;;;;;;;;-0.29;64.35;99561.91;5055609;28;19921;-73
2023/12/05 00:31:15;;;;;;;;;;;;;;;-0.32;64.31;99561.78;5055619;28;19921;-73
2023/12/05 00:33:43;;;;;;;;;;;;;;;-0.31;63.66;99549.28;5055552;28;19956;-73
2023/12/05 00:36:12;;;;;;;;;;;;;;;-0.30;64.18;99556.03;5055782;28;19947;-73
2023/12/05 00:38:43;;;;;;;;;;;;;;;-0.27;64.36;99555.28;5055787;28;20034;-72
2023/12/05 00:41:11;;;;;;;;;;;;;;;-0.28;64.14;99554.44;5055432;28;19927;-72
2023/12/05 00:43:39;;;;;;;;;;;;;;;-0.30;63.63;99561.03;5055711;28;19927;-72
2023/12/05 00:46:09;;;;;;;;;;;;;;;-0.32;63.67;99552.59;5054153;28;19920;-72
2023/12/05 00:48:37;;;;;;;;;;;;;;;-0.32;64.14;99537.56;5055322;28;19920;-73
2023/12/05 00:51:06;;;;;;;;;;;;;;;-0.31;64.25;99541.75;5055796;28;19920;-72
2023/12/05 00:53:35;;;;;;;;;;;;;;;-0.29;64.63;99550.19;5055140;28;19924;-72
2023/12/05 00:56:07;;;;;;;;;;;;;;;-0.31;63.99;99539.25;5055508;28;19978;-74
2023/12/05 00:58:36;;;;;;;;;;;;;;;-0.25;64.47;99544.53;5054027;28;19925;-73
2023/12/05 01:01:05;;;;;;;;;;;;;;;-0.23;64.68;99542.94;5055007;28;19943;-73
2023/12/05 01:03:34;;;;;;;;;;;;;;;-0.22;64.13;99551.31;5035801;28;20019;-72
2023/12/05 01:06:03;;;;;;;;;;;;;;;-0.24;64.15;99551.25;5035343;28;20019;-72
2023/12/05 01:08:32;;;;;;;;;;;;;;;-0.26;64.38;99547.81;5034914;28;20371;-73
2023/12/05 01:11:01;;;;;;;;;;;;;;;-0.27;64.34;99546.13;5033776;28;19925;-73
2023/12/05 01:13:31;;;;;;;;;;;;;;;-0.27;64.40;99547.78;5033962;28;19928;-73
2023/12/05 01:15:59;;;;;;;;;;;;;;;-0.28;64.52;99539.38;5017649;28;19921;-73
2023/12/05 01:18:29;;;;;;;;;;;;;;;-0.28;64.39;99544.41;5034814;28;19921;-73
2023/12/05 01:20:57;;;;;;;;;;;;;;;-0.27;64.11;99541.13;5035348;28;20283;-73
2023/12/05 01:23:26;;;;;;;;;;;;;;;-0.27;63.87;99540.25;5034721;28;20264;-73
2023/12/05 01:25:54;;;;;;;;;;;;;;;-0.27;63.82;99551.16;5034616;28;19921;-72
2023/12/05 01:28:23;;;;;;;;;;;;;;;-0.28;63.17;99541.91;5034484;28;19967;-73
2023/12/05 01:30:52;;;;;;;;;;;;;;;-0.26;62.90;99546.97;5034550;28;19921;-73
2023/12/05 01:33:21;;;;;;;;;;;;;;;-0.25;63.55;99529.50;5035090;28;20409;-72
2023/12/05 01:35:50;;;;;;;;;;;;;;;-0.24;62.74;99526.16;5033771;28;19927;-72
2023/12/05 01:38:19;;;;;;;;;;;;;;;-0.21;62.61;99526.28;5033394;28;19928;-73
2023/12/05 01:40:48;;;;;;;;;;;;;;;-0.21;63.15;99531.31;5033247;28;19921;-73
2023/12/05 01:43:17;;;;;;;;;;;;;;;-0.19;63.02;99519.69;5034307;28;19921;-73
2023/12/05 01:45:45;;;;;;;;;;;;;;;-0.19;62.40;99514.66;5034673;28;19983;-73
2023/12/05 01:48:15;;;;;;;;;;;;;;;-0.21;62.50;99516.25;5034530;28;19925;-72
2023/12/05 01:50:45;;;;;;;;;;;;;;;-0.20;62.26;99502.94;5034646;28;19921;-73
2023/12/05 01:53:15;;;;;;;;;;;;;;;-0.17;62.37;99513.06;5034285;28;19933;-72
2023/12/05 01:55:44;;;;;;;;;;;;;;;-0.13;62.60;99509.91;5034082;28;19931;-73
2023/12/05 01:58:12;;;;;;;;;;;;;;;-0.10;62.50;99499.97;5016581;28;19928;-73
2023/12/05 02:00:41;;;;;;;;;;;;;;;-0.11;62.36;99503.28;5034213;28;20394;-73
2023/12/05 02:03:11;;;;;;;;;;;;;;;-0.09;62.07;99506.72;5051223;28;19920;-72
2023/12/05 02:05:41;;;;;;;;;;;;;;;-0.10;61.96;99499.97;5054057;28;19924;-72
2023/12/05 02:08:11;;;;;;;;;;;;;;;-0.08;62.28;99492.53;5053092;28;19921;-74
2023/12/05 02:10:40;;;;;;;;;;;;;;;-0.15;62.59;99495.59;5053964;28;19920;-73
2023/12/05 02:13:09;;;;;;;;;;;;;;;-0.17;62.71;99504.72;5054090;28;19925;-73
2023/12/05 02:15:38;;;;;;;;;;;;;;;-0.17;63.45;99497.19;5052992;28;19924;-73
2023/12/05 02:18:11;;;;;;;;;;;;;;;-0.20;64.16;99497.06;5053852;28;19924;-73
2023/12/05 02:20:47;;;;;;;;;;;;;;;-0.19;63.78;99489.59;5054042;28;20398;-73
2023/12/05 02:23:27;;;;;;;;;;;;;;;-0.17;64.25;99484.66;5054121;28;19948;-73
2023/12/05 02:26:02;;;;;;;;;;;;;;;-0.22;64.69;99494.50;5053888;28;19927;-72
2023/12/05 02:28:32;;;;;;;;;;;;;;;-0.23;65.26;99485.28;5053829;28;19921;-72
2023/12/05 02:31:01;;;;;;;;;;;;;;;-0.22;65.46;99481.97;5053704;28;19921;-72
2023/12/05 02:33:30;;;;;;;;;;;;;;;-0.22;66.10;99479.47;5053710;28;19975;-73
2023/12/05 02:36:02;;;;;;;;;;;;;;;-0.19;66.38;99479.56;5053918;28;19920;-72
2023/12/05 02:38:34;;;;;;;;;;;;;;;-0.21;66.42;99481.16;5052716;28;19927;-73
2023/12/05 02:41:07;;;;;;;;;;;;;;;-0.24;66.61;99486.06;5053883;28;20342;-72
2023/12/05 02:43:40;;;;;;;;;;;;;;;-0.32;66.53;99474.03;5053684;28;19920;-73
2023/12/05 02:46:10;;;;;;;;;;;;;;;-0.30;67.20;99479.97;5054551;28;19967;-73
2023/12/05 02:48:39;;;;;;;;;;;;;;;-0.24;66.50;99485.22;5058216;28;19928;-73
2023/12/05 02:51:08;;;;;;;;;;;;;;;-0.25;67.24;99489.38;5057776;28;20011;-73
2023/12/05 02:53:36;;;;;;;;;;;;;;;-0.22;66.82;99481.97;5058042;28;19927;-72
2023/12/05 02:56:05;;;;;;;;;;;;;;;-0.23;67.20;99476.88;5057721;28;19928;-72
2023/12/05 02:58:34;;;;;;;;;;;;;;;-0.28;67.57;99479.22;5057280;28;19921;-73
2023/12/05 03:01:04;;;;;;;;;;;;;;;-0.27;68.16;99470.91;5057260;28;19921;-73
2023/12/05 03:03:32;;;;;;;;;;;;;;;-0.20;67.96;99467.84;5057446;28;19922;-73
2023/12/05 03:06:01;;;;;;;;;;;;;;;-0.16;67.67;99467.16;5057564;28;19921;-72
2023/12/05 03:08:30;;;;;;;;;;;;;;;-0.13;68.12;99464.78;5057458;28;19958;-73
2023/12/05 03:10:58;;;;;;;;;;;;;;;-0.09;67.82;99464.06;5057351;28;20283;-73
2023/12/05 03:13:38;;;;;;;;;;;;;;;-0.04;67.64;99470.13;5056554;28;19921;-72
2023/12/05 03:16:09;;;;;;;;;;;;;;;0.02;68.23;99467.00;5057410;28;20058;-73
2023/12/05 03:18:37;;;;;;;;;;;;;;;0.07;67.81;99465.53;5057232;28;19921;-73
2023/12/05 03:21:06;;;;;;;;;;;;;;;0.13;68.28;99453.19;5056825;28;19920;-72
2023/12/05 03:23:35;;;;;;;;;;;;;;;0.16;68.64;99454.94;5057198;28;19921;-71
2023/12/05 03:26:04;;;;;;;;;;;;;;;0.14;68.48;99464.09;5057295;28;19925;-73
2023/12/05 03:28:32;;;;;;;;;;;;;;;0.18;67.77;99465.91;5057602;28;20378;-72
2023/12/05 03:31:01;;;;;;;;;;;;;;;0.18;68.20;99461.75;5057400;28;19921;-73
2023/12/05 03:33:30;;;;;;;;;;;;;;;0.18;68.67;99466.75;5055858;28;19921;-72
2023/12/05 03:35:59;;;;;;;;;;;;;;;0.21;68.29;99463.50;5056958;28;19920;-73
2023/12/05 03:38:27;;;;;;;;;;;;;;;0.23;68.76;99455.22;5055550;28;20305;-71
2023/12/05 03:40:57;;;;;;;;;;;;;;;0.30;68.92;99457.16;5056853;28;19921;-74
2023/12/05 03:43:25;;;;;;;;;;;;;;;0.33;68.79;99439.72;5056314;28;19920;-71
2023/12/05 03:45:54;;;;;;;;;;;;;;;0.35;68.85;99455.69;5038748;28;19921;-71
2023/12/05 03:48:23;;;;;;;;;;;;;;;0.37;68.72;99443.16;5055199;28;20286;-72
2023/12/05 03:50:53;;;;;;;;;;;;;;;0.40;68.57;99448.31;5056740;28;19927;-73
2023/12/05 03:53:23;;;;;;;;;;;;;;;0.38;68.67;99445.75;5056468;28;19928;-73
2023/12/05 03:55:51;;;;;;;;;;;;;;;0.39;68.96;99441.56;5056360;28;20458;-74
2023/12/05 03:58:20;;;;;;;;;;;;;;;0.40;68.84;99433.25;5055349;28;19982;-74
2023/12/05 04:00:48;;;;;;;;;;;;;;;0.42;69.52;99435.00;5056501;28;20282;-73
2023/12/05 04:03:17;;;;;;;;;;;;;;;0.38;69.19;99442.38;5056167;28;19928;-73
2023/12/05 04:05:45;;;;;;;;;;;;;;;0.37;69.83;99428.09;5056568;28;19920;-72
2023/12/05 04:08:16;;;;;;;;;;;;;;;0.40;69.80;99430.75;5054759;28;20011;-71
2023/12/05 04:10:44;;;;;;;;;;;;;;;0.40;70.06;99443.28;5056130;28;19974;-72
2023/12/05 04:13:13;;;;;;;;;;;;;;;0.42;69.92;99431.63;5055760;28;19920;-72
2023/12/05 04:15:42;;;;;;;;;;;;;;;0.42;70.13;99421.59;5056133;28;19921;-71
2023/12/05 04:18:10;;;;;;;;;;;;;;;0.40;69.69;99419.06;5054438;28;20278;-72
2023/12/05 04:20:39;;;;;;;;;;;;;;;0.42;70.27;99421.59;5056031;28;20373;-72
2023/12/05 04:23:08;;;;;;;;;;;;;;;0.42;70.42;99421.59;5055950;28;19982;-72
2023/12/05 04:25:38;;;;;;;;;;;;;;;0.38;70.22;99425.69;5055961;28;19932;-71
2023/12/05 04:28:06;;;;;;;;;;;;;;;0.42;69.97;99429.13;5054747;28;19932;-71
2023/12/05 04:30:35;;;;;;;;;;;;;;;0.44;70.22;99425.00;5055831;28;19920;-71
2023/12/05 04:33:03;;;;;;;;;;;;;;;0.45;70.28;99424.22;5056085;28;19920;-72
2023/12/05 04:35:32;;;;;;;;;;;;;;;0.45;70.30;99420.06;5055315;28;19921;-71
2023/12/05 04:38:00;;;;;;;;;;;;;;;0.49;70.04;99428.53;5054451;28;20027;-72
2023/12/05 04:40:29;;;;;;;;;;;;;;;0.52;69.99;99433.69;5055175;28;20379;-72
2023/12/05 04:42:59;;;;;;;;;;;;;;;0.50;70.00;99430.25;5055550;28;19921;-71
2023/12/05 04:45:28;;;;;;;;;;;;;;;0.47;69.80;99430.16;5055205;28;19920;-71
2023/12/05 04:47:57;;;;;;;;;;;;;;;0.45;69.68;99439.28;5055526;28;19925;-72
2023/12/05 04:50:25;;;;;;;;;;;;;;;0.43;69.44;99438.38;5055583;28;20401;-71
2023/12/05 04:52:54;;;;;;;;;;;;;;;0.43;69.85;99435.88;5055216;28;19921;-73
2023/12/05 04:55:22;;;;;;;;;;;;;;;0.42;70.08;99434.16;5054938;28;19928;-72
2023/12/05 04:57:51;;;;;;;;;;;;;;;0.46;70.03;99433.44;5055519;28;19956;-73
2023/12/05 05:00:21;;;;;;;;;;;;;;;0.45;69.87;99436.78;5055213;28;19920;-72
2023/12/05 05:02:49;;;;;;;;;;;;;;;0.48;69.76;99441.91;5054941;28;20015;-72
2023/12/05 05:05:18;;;;;;;;;;;;;;;0.47;69.86;99440.19;5054945;28;20375;-72
2023/12/05 05:07:47;;;;;;;;;;;;;;;0.52;69.75;99436.19;5055045;28;20371;-72
2023/12/05 05:10:16;;;;;;;;;;;;;;;0.56;69.78;99436.34;5054199;28;20011;-72
2023/12/05 05:12:44;;;;;;;;;;;;;;;0.56;69.75;99435.47;5055643;28;20398;-72
2023/12/05 05:15:13;;;;;;;;;;;;;;;0.60;69.64;99437.31;5054729;28;19963;-72
2023/12/05 05:17:43;;;;;;;;;;;;;;;0.62;70.08;99434.03;5054948;28;20351;-72
2023/12/05 05:20:12;;;;;;;;;;;;;;;0.62;69.68;99435.72;5054927;28;19928;-73
2023/12/05 05:22:41;;;;;;;;;;;;;;;0.63;70.38;99432.38;5053750;28;19927;-72
2023/12/05 05:25:10;;;;;;;;;;;;;;;0.64;69.98;99429.06;5055004;28;19921;-72
2023/12/05 05:27:38;;;;;;;;;;;;;;;0.66;69.70;99427.47;5054833;28;20351;-73
2023/12/05 05:30:09;;;;;;;;;;;;;;;0.66;70.10;99422.44;5053168;28;20011;-72
2023/12/05 05:32:38;;;;;;;;;;;;;;;0.71;69.85;99431.00;5054545;28;19924;-72
2023/12/05 05:35:08;;;;;;;;;;;;;;;0.72;69.84;99432.69;5054764;28;19966;-72
2023/12/05 05:37:37;;;;;;;;;;;;;;;0.73;70.45;99429.38;5054417;28;19924;-73
2023/12/05 05:40:06;;;;;;;;;;;;;;;0.75;69.86;99434.44;5053380;28;19921;-74
2023/12/05 05:42:35;;;;;;;;;;;;;;;0.73;70.47;99426.00;5054966;28;19920;-72
2023/12/05 05:45:05;;;;;;;;;;;;;;;0.76;70.78;99429.50;5054570;28;19928;-72
2023/12/05 05:47:33;;;;;;;;;;;;;;;0.76;70.34;99429.50;5054124;28;19921;-72
2023/12/05 05:50:02;;;;;;;;;;;;;;;0.78;70.88;99435.41;5054203;28;20446;-71
2023/12/05 05:52:34;;;;;;;;;;;;;;;0.74;70.84;99441.16;5054548;28;19920;-72
2023/12/05 05:55:02;;;;;;;;;;;;;;;0.73;71.10;99446.09;5054465;28;19960;-72
2023/12/05 05:57:33;;;;;;;;;;;;;;;0.75;71.40;99442.84;5036368;28;19967;-72
2023/12/05 06:00:03;;;;;;;;;;;;;;;0.75;70.91;99452.88;5054062;28;19943;-72
2023/12/05 06:02:32;;;;;;;;;;;;;;;0.77;70.81;99456.28;5054299;28;20447;-71
2023/12/05 06:05:02;;;;;;;;;;;;;;;0.76;71.11;99454.59;5054328;28;19925;-73
2023/12/05 06:07:31;;;;;;;;;;;;;;;0.75;70.75;99455.41;5052961;28;19928;-73
2023/12/05 06:10:01;;;;;;;;;;;;;;;0.76;70.95;99449.59;5052603;28;19920;-73
2023/12/05 06:12:29;;;;;;;;;;;;;;;0.75;71.10;99452.88;5054115;28;19921;-72
2023/12/05 06:14:58;;;;;;;;;;;;;;;0.76;71.55;99454.59;5053997;28;19925;-72
2023/12/05 06:17:26;;;;;;;;;;;;;;;0.74;70.99;99450.34;5054154;28;19920;-72
2023/12/05 06:19:55;;;;;;;;;;;;;;;0.75;71.15;99452.88;5052057;28;19921;-73
2023/12/05 06:22:23;;;;;;;;;;;;;;;0.76;71.37;99453.75;5035859;28;20283;-73
2023/12/05 06:24:52;;;;;;;;;;;;;;;0.74;71.25;99450.34;5053788;28;19921;-73
2023/12/05 06:27:22;;;;;;;;;;;;;;;0.77;71.32;99451.28;5053895;28;20436;-73
2023/12/05 06:29:51;;;;;;;;;;;;;;;0.79;71.53;99447.19;5053874;28;20054;-73
2023/12/05 06:32:20;;;;;;;;;;;;;;;0.78;71.50;99453.00;5053924;28;19920;-72
2023/12/05 06:34:49;;;;;;;;;;;;;;;0.79;72.08;99454.72;5054103;28;20363;-73
2023/12/05 06:37:17;;;;;;;;;;;;;;;0.77;71.96;99445.41;5054251;28;19920;-72
2023/12/05 06:39:47;;;;;;;;;;;;;;;0.76;71.62;99457.13;5053568;28;19921;-72
2023/12/05 06:42:15;;;;;;;;;;;;;;;0.76;71.63;99449.59;5053839;28;20290;-73
2023/12/05 06:44:45;;;;;;;;;;;;;;;0.79;71.45;99456.38;5053809;28;19921;-72
2023/12/05 06:47:14;;;;;;;;;;;;;;;0.75;72.31;99457.91;5053744;28;19921;-72
2023/12/05 06:49:43;;;;;;;;;;;;;;;0.76;71.97;99454.59;5053735;28;19921;-72
2023/12/05 06:52:12;;;;;;;;;;;;;;;0.75;72.22;99457.91;5053369;28;19928;-72
2023/12/05 06:54:41;;;;;;;;;;;;;;;0.77;71.97;99456.28;5053772;28;20396;-73
2023/12/05 06:57:10;;;;;;;;;;;;;;;0.77;71.82;99461.31;5052311;28;20294;-72
2023/12/05 06:59:40;;;;;;;;;;;;;;;0.76;71.88;99469.69;5052099;28;20428;-72
2023/12/05 07:02:10;;;;;;;;;;;;;;;0.76;72.47;99462.13;5053156;28;19963;-73
2023/12/05 07:04:39;;;;;;;;;;;;;;;0.79;72.47;99462.25;5053634;28;19925;-73
2023/12/05 07:07:07;;;;;;;;;;;;;;;0.79;73.18;99468.94;5052439;28;19925;-71
2023/12/05 07:09:36;;;;;;;;;;;;;;;0.84;72.36;99460.72;5053230;28;19952;-72
2023/12/05 07:12:05;;;;;;;;;;;;;;;0.88;72.58;99464.22;5053525;28;20341;-73
2023/12/05 07:14:34;;;;;;;;;;;;;;;0.87;72.40;99457.47;5052023;28;19927;-73
2023/12/05 07:17:03;;;;;;;;;;;;;;;0.88;72.61;99459.19;5053423;28;20251;-72
2023/12/05 07:19:33;;;;;;;;;;;;;;;0.91;72.94;99465.16;5053402;28;20003;-73
2023/12/05 07:22:01;;;;;;;;;;;;;;;0.90;72.46;99460.94;5053221;28;19971;-73
2023/12/05 07:24:30;;;;;;;;;;;;;;;0.87;71.73;99453.31;5052358;28;20363;-72
2023/12/05 07:26:58;;;;;;;;;;;;;;;0.91;71.43;99465.16;5053069;28;20204;-72
2023/12/05 07:29:27;;;;;;;;;;;;;;;0.93;71.65;99458.53;5051410;28;20298;-72
2023/12/05 07:31:55;;;;;;;;;;;;;;;0.87;71.27;99455.81;5053621;28;19920;-72
2023/12/05 07:34:24;;;;;;;;;;;;;;;0.82;70.54;99457.31;5055787;28;19921;-72
2023/12/05 07:36:54;;;;;;;;;;;;;;;0.82;70.69;99458.97;5055404;28;19921;-72
2023/12/05 07:39:25;;;;;;;;;;;;;;;0.85;70.32;99457.41;5056572;28;19970;-72
2023/12/05 07:41:53;;;;;;;;;;;;;;;0.87;70.46;99458.31;5057006;28;20295;-73
2023/12/05 07:44:22;;;;;;;;;;;;;;;0.88;70.33;99455.03;5056700;28;20389;-73
2023/12/05 07:46:51;;;;;;;;;;;;;;;0.93;70.00;99463.56;5056490;28;19925;-71
2023/12/05 07:49:19;;;;;;;;;;;;;;;0.93;70.13;99458.53;5056317;28;19924;-72
2023/12/05 07:51:48;;;;;;;;;;;;;;;0.98;70.45;99462.06;5056334;28;20023;-72
2023/12/05 07:54:18;;;;;;;;;;;;;;;1.00;70.04;99460.47;5056580;28;19927;-72
2023/12/05 07:56:47;;;;;;;;;;;;;;;1.05;69.81;99468.16;5056616;28;19920;-72
2023/12/05 07:59:16;;;;;;;;;;;;;;;1.07;69.99;99472.41;5056443;28;20019;-73
2023/12/05 08:01:46;;;;;;;;;;;;;;;1.07;69.89;99477.44;5056050;28;19921;-73
2023/12/05 08:04:15;;;;;;;;;;;;;;;1.07;69.80;99467.41;5056202;28;19975;-73
2023/12/05 08:06:43;;;;;;;;;;;;;;;1.11;69.77;99468.31;5062918;28;19974;-73
2023/12/05 08:09:12;;;;;;;;;;;;;;;1.14;69.38;99469.31;5076299;28;19924;-73
2023/12/05 08:11:42;;;;;;;;;;;;;;;1.14;69.26;99468.44;5075920;28;19920;-73
2023/12/05 08:14:11;;;;;;;;;;;;;;;1.13;68.60;99475.13;5076300;28;20339;-73
2023/12/05 08:16:41;;;;;;;;;;;;;;;1.19;68.91;99472.81;5092364;28;19946;-74
2023/12/05 08:19:10;;;;;;;;;;;;;;;1.21;69.20;99468.69;5076285;28;19930;-74
2023/12/05 08:21:39;;;;;;;;;;;;;;;1.18;68.44;99476.13;5076017;28;20013;-74
2023/12/05 08:24:08;;;;;;;;;;;;;;;1.23;69.01;99484.66;5075748;28;20271;-74
2023/12/05 08:26:36;;;;;;;;;;;;;;;1.25;69.08;99477.16;5076026;28;19920;-74
2023/12/05 08:29:07;;;;;;;;;;;;;;;1.29;68.74;99482.38;5091767;28;19925;-73
2023/12/05 08:31:35;;;;;;;;;;;;;;;1.31;68.56;99478.25;5076268;28;19921;-73
2023/12/05 08:34:04;;;;;;;;;;;;;;;1.39;69.01;99485.19;5074332;28;19921;-73
2023/12/05 08:36:32;;;;;;;;;;;;;;;1.40;68.16;99492.75;5076016;28;20424;-73
2023/12/05 08:39:01;;;;;;;;;;;;;;;1.38;68.70;99493.50;5074257;28;19970;-75
2023/12/05 08:41:30;;;;;;;;;;;;;;;1.40;68.67;99491.91;5075616;28;19924;-75
2023/12/05 08:43:58;;;;;;;;;;;;;;;1.42;67.75;99490.31;5075023;28;19924;-74
2023/12/05 08:46:28;;;;;;;;;;;;;;;1.50;68.06;99488.88;5075572;28;19921;-74
2023/12/05 08:48:57;;;;;;;;;;;;;;;1.56;67.92;99489.91;5075849;28;19959;-75
2023/12/05 08:51:27;;;;;;;;;;;;;;;1.60;68.36;99495.91;5074170;28;19924;-75
2023/12/05 08:53:56;;;;;;;;;;;;;;;1.66;68.15;99481.00;5075469;28;20281;-72
2023/12/05 08:56:25;;;;;;;;;;;;;;;1.70;68.71;99480.31;5075368;28;19920;-75
2023/12/05 08:58:55;;;;;;;;;;;;;;;1.73;69.06;99487.94;5075430;28;20339;-74
2023/12/05 09:01:24;;;;;;;;;;;;;;;1.74;69.50;99482.09;5075114;28;19943;-74
2023/12/05 09:03:55;;;;;;;;;;;;;;;1.76;69.46;99472.94;5090814;28;19966;-75
2023/12/05 09:06:24;;;;;;;;;;;;;;;1.77;68.96;99477.16;5074857;28;19927;-74
2023/12/05 09:08:54;;;;;;;;;;;;;;;1.79;69.24;99473.03;5074748;28;19973;-74
2023/12/05 09:11:22;;;;;;;;;;;;;;;1.80;69.04;99464.69;5075051;28;19921;-75
2023/12/05 09:13:51;;;;;;;;;;;;;;;1.83;69.39;99469.78;5075087;28;19985;-74
2023/12/05 09:16:20;;;;;;;;;;;;;;;1.86;69.21;99469.91;5075054;28;19969;-74
2023/12/05 09:18:48;;;;;;;;;;;;;;;1.93;69.55;99461.72;5073619;28;19928;-74
2023/12/05 09:21:18;;;;;;;;;;;;;;;1.99;69.63;99461.91;5074841;28;19920;-75
2023/12/05 09:23:47;;;;;;;;;;;;;;;2.03;69.44;99463.72;5073260;28;19920;-73
2023/12/05 09:26:16;;;;;;;;;;;;;;;2.08;69.23;99459.66;5073354;28;19920;-76
2023/12/05 09:28:44;;;;;;;;;;;;;;;2.08;69.23;99459.66;5074873;28;19920;-75
2023/12/05 09:31:13;;;;;;;;;;;;;;;2.13;69.77;99455.63;5075382;28;20014;-76
2023/12/05 09:33:42;;;;;;;;;;;;;;;2.18;69.88;99454.09;5074374;28;19928;-75
2023/12/05 09:36:11;;;;;;;;;;;;;;;2.16;69.13;99444.78;5074618;28;19924;-74
2023/12/05 09:38:41;;;;;;;;;;;;;;;2.10;68.56;99447.97;5073487;28;19921;-74
2023/12/05 09:41:10;;;;;;;;;;;;;;;2.07;67.70;99445.34;5074357;28;20420;-76
2023/12/05 09:43:40;;;;;;;;;;;;;;;2.03;67.36;99438.53;5074145;28;19921;-74
2023/12/05 09:46:10;;;;;;;;;;;;;;;2.01;67.50;99435.13;5074438;28;19921;-74
2023/12/05 09:48:43;;;;;;;;;;;;;;;2.02;67.20;99430.13;5073356;28;19947;-76
2023/12/05 09:51:13;;;;;;;;;;;;;;;2.13;67.02;99430.44;5056802;28;19920;-75
2023/12/05 09:53:44;;;;;;;;;;;;;;;2.22;66.88;99424.81;5072736;28;19921;-73
2023/12/05 09:56:13;;;;;;;;;;;;;;;2.38;67.10;99420.25;5073281;28;19920;-75
2023/12/05 09:58:42;;;;;;;;;;;;;;;2.47;66.90;99423.00;5074038;28;19959;-75
2023/12/05 10:01:14;;;;;;;;;;;;;;;2.57;66.92;99409.84;5072618;28;19971;-74
2023/12/05 10:03:44;;;;;;;;;;;;;;;2.60;65.33;99414.97;5073855;28;19969;-74
2023/12/05 10:06:14;;;;;;;;;;;;;;;2.69;65.96;99420.25;5074116;28;19920;-75
2023/12/05 10:08:47;;;;;;;;;;;;;;;2.87;65.02;99419.88;5056100;28;20298;-74
2023/12/05 10:11:17;;;;;;;;;;;;;;;2.80;64.57;99414.63;5074252;28;19920;-74
2023/12/05 10:13:47;;;;;;;;;;;;;;;2.85;64.63;99418.13;5074236;28;19974;-74
2023/12/05 10:16:16;;;;;;;;;;;;;;;2.91;64.67;99420.78;5073506;28;20294;-74
2023/12/05 10:18:45;;;;;;;;;;;;;;;2.99;64.60;99424.34;5074042;28;20271;-75
2023/12/05 10:21:14;;;;;;;;;;;;;;;3.20;64.01;99417.31;5074118;28;20015;-77
2023/12/05 10:23:43;;;;;;;;;;;;;;;3.47;64.08;99414.59;5073802;28;19921;-75
2023/12/05 10:26:13;;;;;;;;;;;;;;;3.81;63.97;99402.78;5073377;28;20278;-74
2023/12/05 10:28:49;;;;;;;;;;;;;;;3.98;63.70;99411.53;5074112;28;20393;-74
2023/12/05 10:31:18;;;;;;;;;;;;;;;4.03;63.00;99404.91;5074032;28;20354;-75
2023/12/05 10:33:48;;;;;;;;;;;;;;;3.92;62.35;99401.31;5074247;28;19922;-75
2023/12/05 10:36:17;;;;;;;;;;;;;;;3.94;62.08;99389.56;5073896;28;20328;-76
2023/12/05 10:38:46;;;;;;;;;;;;;;;3.97;62.20;99393.84;5073799;28;19927;-74
2023/12/05 10:41:23;;;;;;;;;;;;;;;4.10;62.55;99389.91;5073875;28;19920;-75
2023/12/05 10:43:55;;;;;;;;;;;;;;;4.20;62.08;99402.72;5073702;28;19920;-75
2023/12/05 10:46:26;;;;;;;;;;;;;;;4.24;62.56;99398.59;5072561;28;19921;-78
2023/12/05 10:48:55;;;;;;;;;;;;;;;4.37;62.43;99400.50;5073415;28;19921;-80
2023/12/05 10:51:25;;;;;;;;;;;;;;;4.61;62.46;99396.78;5073480;28;19928;-78
2023/12/05 10:53:55;;;;;;;;;;;;;;;4.70;62.17;99399.47;5074067;28;20281;-75
2023/12/05 10:56:27;;;;;;;;;;;;;;;4.75;61.85;99394.53;5073907;28;19920;-81
2023/12/05 10:58:58;;;;;;;;;;;;;;;4.75;61.61;99394.53;5089519;28;19920;-75
2023/12/05 11:01:28;;;;;;;;;;;;;;;4.87;61.44;99393.88;5072170;28;19942;-74
2023/12/05 11:04:00;;;;;;;;;;;;;;;4.90;61.17;99399.81;5073507;28;19920;-80
2023/12/05 11:06:30;;;;;;;;;;;;;;;4.95;61.19;99392.31;5074263;28;19920;-77
2023/12/05 11:08:59;;;;;;;;;;;;;;;4.85;61.16;99398.88;5077792;28;20293;-75
2023/12/05 11:11:30;;;;;;;;;;;;;;;4.77;60.78;99405.50;5076892;28;19998;-79
2023/12/05 11:14:00;;;;;;;;;;;;;;;4.77;61.19;99407.19;5075904;28;19920;-79
2023/12/05 11:16:31;;;;;;;;;;;;;;;4.76;61.09;99403.78;5077574;28;19921;-75
2023/12/05 11:19:09;;;;;;;;;;;;;;;4.75;61.23;99400.41;5077497;28;19920;-74
2023/12/05 11:21:46;;;;;;;;;;;;;;;4.88;61.30;99396.41;5075754;28;19920;-73
2023/12/05 11:24:26;;;;;;;;;;;;;;;5.10;61.48;99401.03;5076878;28;19973;-73
2023/12/05 11:27:04;;;;;;;;;;;;;;;5.31;60.83;99398.81;5077482;28;20285;-76
2023/12/05 11:29:53;;;;;;;;;;;;;;;5.54;60.64;99400.84;5077068;28;20029;-77
2023/12/05 11:32:30;;;;;;;;;;;;;;;5.72;60.49;99401.09;5060001;28;19920;-74
2023/12/05 11:35:04;;;;;;;;;;;;;;;5.59;59.28;99399.25;5059240;28;19920;-73
2023/12/05 11:37:43;;;;;;;;;;;;;;;5.41;59.61;99403.19;5061047;28;19928;-74
2023/12/05 11:40:12;;;;;;;;;;;;;;;5.31;59.02;99405.56;5060442;28;20357;-76
2023/12/05 11:43:04;;;;;;;;;;;;;;;5.21;59.25;99406.22;5056689;28;19921;-74
2023/12/05 11:45:33;;;;;;;;;;;;;;;5.15;59.16;99412.06;5046574;28;20038;-73
2023/12/05 11:48:03;;;;;;;;;;;;;;;4.92;59.30;99408.28;5069699;28;19924;-73
2023/12/05 11:50:49;;;;;;;;;;;;;;;4.72;59.30;99399.50;5071604;28;19924;-73
2023/12/05 11:53:19;;;;;;;;;;;;;;;4.57;59.55;99404.28;5067035;28;19924;-78
2023/12/05 11:55:48;;;;;;;;;;;;;;;4.68;59.98;99400.25;5082098;28;19920;-78
2023/12/05 11:58:28;;;;;;;;;;;;;;;5.01;60.18;99398.34;5065503;28;19925;-79
2023/12/05 12:01:04;;;;;;;;;;;;;;;5.31;60.10;99398.81;5058747;28;19920;-76
2023/12/05 12:03:43;;;;;;;;;;;;;;;5.59;59.51;99400.06;5075868;28;19927;-79
2023/12/05 12:06:12;;;;;;;;;;;;;;;5.88;58.80;99390.38;5076914;28;20019;-78
2023/12/05 12:08:43;;;;;;;;;;;;;;;6.00;58.46;99393.06;5094013;28;19920;-79
2023/12/05 12:11:12;;;;;;;;;;;;;;;6.34;57.96;99369.84;5076973;28;19993;-73
2023/12/05 12:13:43;;;;;;;;;;;;;;;6.37;56.35;99367.34;5074798;28;19920;-73
2023/12/05 12:16:13;;;;;;;;;;;;;;;6.22;55.97;99367.16;5075899;28;19920;-77
2023/12/05 12:18:42;;;;;;;;;;;;;;;6.25;55.72;99371.44;5075441;28;19924;-79
2023/12/05 12:21:21;;;;;;;;;;;;;;;6.24;54.87;99365.50;5076170;28;19920;-79
2023/12/05 12:23:55;;;;;;;;;;;;;;;6.66;55.49;99357.50;5076104;28;19920;-78
2023/12/05 12:26:23;;;;;;;;;;;;;;;6.58;54.54;99365.03;5092270;28;19920;-79
2023/12/05 12:29:05;;;;;;;;;;;;;;;6.49;54.62;99364.94;5077096;28;19926;-79
2023/12/05 12:31:35;;;;;;;;;;;;;;;6.49;54.68;99364.94;5075132;28;19920;-78
2023/12/05 12:34:07;;;;;;;;;;;;;;;6.21;53.97;99357.88;5075904;28;19970;-74
2023/12/05 12:36:37;;;;;;;;;;;;;;;6.26;54.63;99351.19;5042079;28;19921;-74
2023/12/05 12:39:07;;;;;;;;;;;;;;;6.41;54.92;99351.34;5077025;28;19920;-78
2023/12/05 12:41:38;;;;;;;;;;;;;;;6.52;54.22;99354.84;5074532;28;20011;-77
2023/12/05 12:44:09;;;;;;;;;;;;;;;6.24;54.07;99346.94;5075516;28;19920;-75
2023/12/05 12:46:38;;;;;;;;;;;;;;;6.03;55.60;99352.59;5075681;28;19920;-74
2023/12/05 12:49:07;;;;;;;;;;;;;;;5.55;55.24;99354.44;5075462;28;19924;-72
2023/12/05 12:51:38;;;;;;;;;;;;;;;5.02;55.69;99354.50;5074789;28;19970;-78
2023/12/05 12:54:07;;;;;;;;;;;;;;;4.80;57.10;99342.34;5074556;28;19920;-77
2023/12/05 12:56:36;;;;;;;;;;;;;;;4.81;57.53;99344.06;5090993;28;19920;-77
2023/12/05 12:59:05;;;;;;;;;;;;;;;4.80;57.95;99351.63;5075310;28;19920;-77
2023/12/05 13:01:39;;;;;;;;;;;;;;;4.57;57.91;99351.22;5075584;28;20283;-77
2023/12/05 13:04:08;;;;;;;;;;;;;;;4.30;58.36;99349.03;5075602;28;19979;-75
2023/12/05 13:06:38;;;;;;;;;;;;;;;4.17;59.04;99349.66;5057786;28;19928;-78
2023/12/05 13:09:10;;;;;;;;;;;;;;;3.97;59.59;99349.25;5076663;28;19920;-77